Time;durP1;ratioP1;P1;durP2;ratioP2;P2;SDS_P1;SDS_P2;PMS_P1;PMS_P2;Temp;Humidity;BMP_temperature;BMP_pressure;BME280_temperature;BME280_humidity;BME280_pressure;Samples;Min_cycle;Max_cycle;Signal;HPM_P1;HPM_P2
2022/12/28 00:00:10;;;;;;;15.75;7.53;;;;;;;;;;4943200;28;20042;-71
2022/12/28 00:02:36;;;;;;;25.40;9.52;;;;;;;;;;4942496;28;20031;-71
2022/12/28 00:05:03;;;;;;;17.02;7.57;;;;;;;;;;4924505;28;20070;-72
2022/12/28 00:07:31;;;;;;;21.55;7.95;;;;;;;;;;4942559;28;20046;-72
2022/12/28 00:09:56;;;;;;;18.02;7.85;;;;;;;;;;4924373;28;20591;-72
2022/12/28 00:12:21;;;;;;;21.17;8.73;;;;;;;;;;4910669;28;20193;-72
2022/12/28 00:14:51;;;;;;;20.40;8.13;;;;;;;;;;4922951;28;20481;-70
2022/12/28 00:17:17;;;;;;;16.58;7.32;;;;;;;;;;4922790;28;20555;-73
2022/12/28 00:19:44;;;;;;;16.08;6.55;;;;;;;;;;4923458;28;20498;-71
2022/12/28 00:22:10;;;;;;;17.80;7.25;;;;;;;;;;4922395;28;20062;-72
2022/12/28 00:24:35;;;;;;;20.92;7.22;;;;;;;;;;4923647;28;20040;-71
2022/12/28 00:27:00;;;;;;;18.63;8.35;;;;;;;;;;4923617;28;20512;-70
2022/12/28 00:29:28;;;;;;;21.77;8.32;;;;;;;;;;4924092;28;20039;-71
2022/12/28 00:31:54;;;;;;;20.38;8.02;;;;;;;;;;4906756;28;20163;-70
2022/12/28 00:34:22;;;;;;;23.38;8.23;;;;;;;;;;4906592;28;20047;-70
2022/12/28 00:36:50;;;;;;;21.73;7.65;;;;;;;;;;4889754;28;20608;-70
2022/12/28 00:39:16;;;;;;;19.13;7.38;;;;;;;;;;4905154;28;20129;-70
2022/12/28 00:41:41;;;;;;;23.42;8.00;;;;;;;;;;4906169;28;20033;-72
2022/12/28 00:44:11;;;;;;;20.00;7.03;;;;;;;;;;4907937;28;20263;-72
2022/12/28 00:46:36;;;;;;;21.27;7.72;;;;;;;;;;4923912;28;20530;-71
2022/12/28 00:49:02;;;;;;;19.67;7.05;;;;;;;;;;4906601;28;20653;-71
2022/12/28 00:51:27;;;;;;;21.00;6.72;;;;;;;;;;4925024;28;20052;-72
2022/12/28 00:53:53;;;;;;;17.65;6.70;;;;;;;;;;4925293;28;20031;-73
2022/12/28 00:56:19;;;;;;;24.95;7.60;;;;;;;;;;4891245;28;20043;-72
2022/12/28 00:58:45;;;;;;;17.17;6.32;;;;;;;;;;4923871;28;20030;-71
2022/12/28 01:01:11;;;;;;;14.60;6.70;;;;;;;;;;4924331;28;20039;-71
2022/12/28 01:03:37;;;;;;;18.38;7.60;;;;;;;;;;4923814;28;20035;-71
2022/12/28 01:06:06;;;;;;;17.65;6.68;;;;;;;;;;4923831;28;20035;-71
2022/12/28 01:08:31;;;;;;;22.80;6.40;;;;;;;;;;4924200;28;20500;-72
2022/12/28 01:10:56;;;;;;;24.50;7.20;;;;;;;;;;4908095;28;20034;-70
2022/12/28 01:13:22;;;;;;;23.88;7.90;;;;;;;;;;4943539;28;20031;-70
2022/12/28 01:15:47;;;;;;;33.80;9.00;;;;;;;;;;4925025;28;20038;-70
2022/12/28 01:18:14;;;;;;;34.80;8.25;;;;;;;;;;4924139;28;20591;-71
2022/12/28 01:20:39;;;;;;;34.97;9.05;;;;;;;;;;4925040;28;20047;-70
2022/12/28 01:23:05;;;;;;;31.20;9.00;;;;;;;;;;4942603;28;20122;-71
2022/12/28 01:25:31;;;;;;;25.65;8.38;;;;;;;;;;4925160;28;20113;-69
2022/12/28 01:27:57;;;;;;;23.05;7.90;;;;;;;;;;4942073;28;20346;-71
2022/12/28 01:30:22;;;;;;;24.10;9.15;;;;;;;;;;4942439;28;20269;-69
2022/12/28 01:32:49;;;;;;;32.15;9.23;;;;;;;;;;4923561;28;20074;-68
2022/12/28 01:35:14;;;;;;;23.92;8.13;;;;;;;;;;4942393;28;20584;-72
2022/12/28 01:37:40;;;;;;;23.40;8.25;;;;;;;;;;4942287;28;20419;-72
2022/12/28 01:40:05;;;;;;;20.65;7.68;;;;;;;;;;4924919;28;20030;-69
2022/12/28 01:42:31;;;;;;;17.95;6.60;;;;;;;;;;4940187;28;20489;-70
2022/12/28 01:44:56;;;;;;;22.38;7.32;;;;;;;;;;4942643;28;20437;-71
2022/12/28 01:47:25;;;;;;;23.23;7.60;;;;;;;;;;4933647;28;20765;-68
2022/12/28 01:50:23;;;;;;;23.50;7.45;;;;;;;;;;4941611;28;20561;-71
2022/12/28 01:52:51;;;;;;;21.42;9.45;;;;;;;;;;4946082;28;20041;-72
2022/12/28 01:55:24;;;;;;;19.63;7.85;;;;;;;;;;4923177;28;20115;-70
2022/12/28 01:58:11;;;;;;;23.35;8.85;;;;;;;;;;4936842;28;20038;-69
2022/12/28 02:00:36;;;;;;;26.75;9.02;;;;;;;;;;4922575;28;20126;-71
2022/12/28 02:03:08;;;;;;;26.40;9.85;;;;;;;;;;4920457;28;20027;-69
2022/12/28 02:05:42;;;;;;;23.20;9.32;;;;;;;;;;4922184;28;20105;-70
2022/12/28 02:08:12;;;;;;;30.35;8.65;;;;;;;;;;4922724;28;20034;-71
2022/12/28 02:10:40;;;;;;;23.38;7.95;;;;;;;;;;4922687;28;20031;-69
2022/12/28 02:13:06;;;;;;;24.20;8.85;;;;;;;;;;4941584;28;20467;-71
2022/12/28 02:15:32;;;;;;;27.80;8.85;;;;;;;;;;4942950;28;20035;-70
2022/12/28 02:17:57;;;;;;;18.70;8.10;;;;;;;;;;4943243;28;20039;-69
2022/12/28 02:20:26;;;;;;;19.10;7.47;;;;;;;;;;4942533;28;20323;-70
2022/12/28 02:23:09;;;;;;;30.70;8.45;;;;;;;;;;4942799;28;20051;-70
2022/12/28 02:25:48;;;;;;;21.75;8.40;;;;;;;;;;4943091;28;20503;-72
2022/12/28 02:28:25;;;;;;;24.67;8.50;;;;;;;;;;4943091;28;20126;-70
2022/12/28 02:31:00;;;;;;;23.38;7.75;;;;;;;;;;4942727;28;20820;-70
2022/12/28 02:33:28;;;;;;;21.63;7.78;;;;;;;;;;4942254;28;20027;-70
2022/12/28 02:35:55;;;;;;;26.52;8.23;;;;;;;;;;4942071;28;20666;-73
2022/12/28 02:38:24;;;;;;;26.70;7.88;;;;;;;;;;4942904;28;20043;-70
2022/12/28 02:40:59;;;;;;;23.63;8.25;;;;;;;;;;4923078;28;20039;-72
2022/12/28 02:43:27;;;;;;;21.02;7.53;;;;;;;;;;4943847;28;20116;-71
2022/12/28 02:51:29;;;;;;;29.95;8.77;;;;;;;;;;4941951;28;20862;-69
2022/12/28 02:54:08;;;;;;;29.00;8.88;;;;;;;;;;4942063;28;20136;-69
2022/12/28 02:56:36;;;;;;;30.02;8.80;;;;;;;;;;4941765;28;20517;-69
2022/12/28 02:59:20;;;;;;;21.30;7.95;;;;;;;;;;4942310;28;20027;-69
2022/12/28 03:02:21;;;;;;;30.08;9.85;;;;;;;;;;4921731;28;20141;-72
2022/12/28 03:04:49;;;;;;;30.60;8.82;;;;;;;;;;4977791;28;20259;-72
2022/12/28 03:10:14;;;;;;;35.35;10.13;;;;;;;;;;4941690;28;20038;-69
2022/12/28 03:12:42;;;;;;;28.02;8.57;;;;;;;;;;4940217;28;20201;-69
2022/12/28 03:15:14;;;;;;;36.67;9.85;;;;;;;;;;4921509;28;20417;-70
2022/12/28 03:31:30;;;;;;;45.13;11.68;;;;;;;;;;4939798;28;20180;-70
2022/12/28 03:34:05;;;;;;;38.13;11.23;;;;;;;;;;4940585;28;20046;-69
2022/12/28 03:36:42;;;;;;;47.78;12.32;;;;;;;;;;4940319;28;20360;-71
2022/12/28 03:39:17;;;;;;;50.65;12.90;;;;;;;;;;4939789;28;20057;-69
2022/12/28 03:44:53;;;;;;;46.35;12.45;;;;;;;;;;4939487;28;20192;-71
2022/12/28 03:47:20;;;;;;;46.55;12.60;;;;;;;;;;4940856;28;20031;-70
2022/12/28 03:49:47;;;;;;;45.92;13.63;;;;;;;;;;4942314;28;20591;-73
2022/12/28 03:52:12;;;;;;;40.00;11.93;;;;;;;;;;4942520;28;20043;-69
2022/12/28 03:54:38;;;;;;;45.30;13.63;;;;;;;;;;4925195;28;20096;-70
2022/12/28 03:57:03;;;;;;;44.45;12.63;;;;;;;;;;4942216;28;20492;-68
2022/12/28 03:59:29;;;;;;;53.40;13.35;;;;;;;;;;4941689;28;20038;-71
2022/12/28 04:01:54;;;;;;;42.50;12.77;;;;;;;;;;4924751;28;20082;-72
2022/12/28 04:04:19;;;;;;;56.15;13.00;;;;;;;;;;4909486;28;20431;-69
2022/12/28 04:06:47;;;;;;;52.13;14.15;;;;;;;;;;4941100;28;20031;-70
2022/12/28 04:09:12;;;;;;;53.25;13.63;;;;;;;;;;4941317;28;20042;-69
2022/12/28 04:11:38;;;;;;;48.10;13.15;;;;;;;;;;4941707;28;20045;-68
2022/12/28 04:14:03;;;;;;;58.15;14.77;;;;;;;;;;4924829;28;20575;-70
2022/12/28 04:16:32;;;;;;;47.55;13.60;;;;;;;;;;4924947;28;20083;-70
2022/12/28 04:18:57;;;;;;;52.05;13.05;;;;;;;;;;4925437;28;20039;-71
2022/12/28 04:21:25;;;;;;;54.15;12.82;;;;;;;;;;4942355;28;20097;-72
2022/12/28 04:23:51;;;;;;;50.15;12.63;;;;;;;;;;4941969;28;20617;-70
2022/12/28 04:26:17;;;;;;;55.35;13.23;;;;;;;;;;4941996;28;20039;-70
2022/12/28 04:28:42;;;;;;;68.00;15.57;;;;;;;;;;4942355;28;20496;-69
2022/12/28 04:31:09;;;;;;;50.17;12.73;;;;;;;;;;4942269;28;20159;-71
2022/12/28 04:33:37;;;;;;;48.72;13.02;;;;;;;;;;4942140;28;20359;-70
2022/12/28 04:36:13;;;;;;;42.38;11.20;;;;;;;;;;4940532;28;20029;-68
2022/12/28 04:38:39;;;;;;;67.00;14.40;;;;;;;;;;4941468;28;20034;-70
2022/12/28 04:41:10;;;;;;;51.22;13.02;;;;;;;;;;4924583;28;20034;-68
2022/12/28 04:43:41;;;;;;;58.67;13.52;;;;;;;;;;4941224;28;20085;-70
2022/12/28 04:46:08;;;;;;;47.70;13.18;;;;;;;;;;4913456;28;20041;-69
2022/12/28 04:48:34;;;;;;;60.70;13.02;;;;;;;;;;4941868;28;20027;-69
2022/12/28 04:51:07;;;;;;;63.08;14.02;;;;;;;;;;4990652;28;20053;-69
2022/12/28 04:53:39;;;;;;;60.67;13.43;;;;;;;;;;4939973;28;20262;-67
2022/12/28 04:56:05;;;;;;;58.65;15.27;;;;;;;;;;4940907;28;20037;-68
2022/12/28 04:58:30;;;;;;;55.78;14.00;;;;;;;;;;4923512;28;20022;-68
2022/12/28 05:01:06;;;;;;;53.22;13.85;;;;;;;;;;4941260;28;20269;-68
2022/12/28 05:03:33;;;;;;;52.55;14.45;;;;;;;;;;4941388;28;20353;-69
2022/12/28 05:06:02;;;;;;;63.53;14.40;;;;;;;;;;4941394;28;20323;-70
2022/12/28 05:08:29;;;;;;;55.70;14.15;;;;;;;;;;4941756;28;20042;-69
2022/12/28 05:11:00;;;;;;;59.22;14.70;;;;;;;;;;4923749;28;20043;-69
2022/12/28 05:13:25;;;;;;;55.67;12.98;;;;;;;;;;4940939;28;20071;-70
2022/12/28 05:15:51;;;;;;;67.72;14.82;;;;;;;;;;4941242;28;20035;-70
2022/12/28 05:18:16;;;;;;;72.50;14.45;;;;;;;;;;5006390;28;20415;-68
2022/12/28 05:20:41;;;;;;;59.17;13.25;;;;;;;;;;4940962;28;20031;-70
2022/12/28 05:23:06;;;;;;;57.40;12.68;;;;;;;;;;4940316;28;20460;-70
2022/12/28 05:25:32;;;;;;;60.13;13.07;;;;;;;;;;4940997;28;20038;-72
2022/12/28 05:27:57;;;;;;;58.63;13.77;;;;;;;;;;4940626;28;20027;-69
2022/12/28 05:30:25;;;;;;;53.75;13.00;;;;;;;;;;4941478;28;20031;-68
2022/12/28 05:32:50;;;;;;;75.75;13.05;;;;;;;;;;5006311;28;20412;-68
2022/12/28 05:35:16;;;;;;;78.43;15.68;;;;;;;;;;5007227;28;20058;-70
2022/12/28 05:37:41;;;;;;;48.08;11.88;;;;;;;;;;5006973;28;20118;-69
2022/12/28 05:40:07;;;;;;;60.78;12.73;;;;;;;;;;4989960;28;20464;-69
2022/12/28 05:42:33;;;;;;;66.15;12.73;;;;;;;;;;5006180;28;20039;-68
2022/12/28 05:45:02;;;;;;;56.53;13.82;;;;;;;;;;4941179;28;20065;-69
2022/12/28 05:47:29;;;;;;;48.75;12.52;;;;;;;;;;4967104;28;20861;-68
2022/12/28 05:49:55;;;;;;;53.80;13.38;;;;;;;;;;4940654;28;20054;-69
2022/12/28 05:52:20;;;;;;;74.13;15.20;;;;;;;;;;4923422;28;20069;-68
2022/12/28 05:54:46;;;;;;;63.42;14.63;;;;;;;;;;4940435;28;20461;-68
2022/12/28 05:57:11;;;;;;;51.60;12.52;;;;;;;;;;5006800;28;20081;-68
2022/12/28 05:59:36;;;;;;;57.80;12.65;;;;;;;;;;4940485;28;20050;-67
2022/12/28 06:02:01;;;;;;;61.28;12.27;;;;;;;;;;4941106;28;20046;-69
2022/12/28 06:04:29;;;;;;;51.20;12.43;;;;;;;;;;4941156;28;20102;-69
2022/12/28 06:06:54;;;;;;;54.78;12.93;;;;;;;;;;4941032;28;20547;-68
2022/12/28 06:09:20;;;;;;;45.85;12.02;;;;;;;;;;4940233;28;20033;-69
2022/12/28 06:11:48;;;;;;;63.35;13.95;;;;;;;;;;4939160;28;20196;-69
2022/12/28 06:14:13;;;;;;;48.28;11.80;;;;;;;;;;4940730;28;20070;-68
2022/12/28 06:16:40;;;;;;;64.38;12.75;;;;;;;;;;4940727;28;20114;-68
2022/12/28 06:19:06;;;;;;;63.78;13.65;;;;;;;;;;4940488;28;20265;-68
2022/12/28 06:21:35;;;;;;;54.25;13.40;;;;;;;;;;4940311;28;20111;-68
2022/12/28 06:24:03;;;;;;;56.00;12.65;;;;;;;;;;4940274;28;20031;-69
2022/12/28 06:26:31;;;;;;;46.97;11.23;;;;;;;;;;4922398;28;20121;-69
2022/12/28 06:29:00;;;;;;;52.90;10.82;;;;;;;;;;4940722;28;20056;-69
2022/12/28 06:31:27;;;;;;;64.13;12.32;;;;;;;;;;4940279;28;20070;-68
2022/12/28 06:33:54;;;;;;;55.15;11.93;;;;;;;;;;4940089;28;20042;-72
2022/12/28 06:36:21;;;;;;;54.17;11.30;;;;;;;;;;4940484;28;20142;-68
2022/12/28 06:38:51;;;;;;;55.78;12.27;;;;;;;;;;4940008;28;20233;-68
2022/12/28 06:41:17;;;;;;;44.92;11.50;;;;;;;;;;4918508;28;20126;-68
2022/12/28 06:43:42;;;;;;;51.20;14.10;;;;;;;;;;4921638;28;20493;-68
2022/12/28 06:46:08;;;;;;;55.70;13.85;;;;;;;;;;4925043;28;20039;-69
2022/12/28 06:48:35;;;;;;;60.50;14.90;;;;;;;;;;4939943;28;20030;-68
2022/12/28 06:51:04;;;;;;;67.03;14.65;;;;;;;;;;4939611;28;20478;-68
2022/12/28 06:53:31;;;;;;;55.70;13.82;;;;;;;;;;4939967;28;20043;-67
2022/12/28 06:55:58;;;;;;;53.65;14.52;;;;;;;;;;4939403;28;20126;-67
2022/12/28 06:58:25;;;;;;;56.95;14.98;;;;;;;;;;4939464;28;20269;-68
2022/12/28 07:00:53;;;;;;;49.80;13.63;;;;;;;;;;4939797;28;20126;-68
2022/12/28 07:03:19;;;;;;;51.28;13.55;;;;;;;;;;4922911;28;20042;-69
2022/12/28 07:05:44;;;;;;;61.95;13.93;;;;;;;;;;4941164;28;20575;-68
2022/12/28 07:08:09;;;;;;;51.50;13.20;;;;;;;;;;4923837;28;20031;-69
2022/12/28 07:10:35;;;;;;;54.22;14.80;;;;;;;;;;4942811;28;20027;-68
2022/12/28 07:13:01;;;;;;;65.75;14.75;;;;;;;;;;4941126;28;20069;-69
2022/12/28 07:15:26;;;;;;;60.40;14.27;;;;;;;;;;4941460;28;20064;-69
2022/12/28 07:17:51;;;;;;;61.05;14.68;;;;;;;;;;4906032;28;20214;-69
2022/12/28 07:20:19;;;;;;;59.97;14.45;;;;;;;;;;4921583;28;20038;-69
2022/12/28 07:22:46;;;;;;;58.15;15.30;;;;;;;;;;4940758;28;20452;-69
2022/12/28 07:25:14;;;;;;;57.60;14.27;;;;;;;;;;4942893;28;20144;-70
2022/12/28 07:27:39;;;;;;;59.08;13.90;;;;;;;;;;4943323;28;20038;-69
2022/12/28 07:30:07;;;;;;;56.35;14.30;;;;;;;;;;4942048;28;20035;-68
2022/12/28 07:32:35;;;;;;;56.15;14.35;;;;;;;;;;4943378;28;20035;-69
2022/12/28 07:35:00;;;;;;;57.53;13.93;;;;;;;;;;4942705;28;20161;-68
2022/12/28 07:37:26;;;;;;;57.80;13.90;;;;;;;;;;4943378;28;20107;-69
2022/12/28 07:39:51;;;;;;;56.90;14.35;;;;;;;;;;4944492;28;20047;-72
2022/12/28 07:42:17;;;;;;;74.80;15.82;;;;;;;;;;4955719;28;20043;-71
2022/12/28 07:44:44;;;;;;;65.70;15.48;;;;;;;;;;4953532;28;20059;-72
2022/12/28 07:47:10;;;;;;;66.38;15.13;;;;;;;;;;4950666;28;20027;-72
2022/12/28 07:49:35;;;;;;;62.55;15.50;;;;;;;;;;4932750;28;20485;-71
2022/12/28 07:52:00;;;;;;;66.00;15.07;;;;;;;;;;4928102;28;20507;-71
2022/12/28 07:54:28;;;;;;;61.08;14.65;;;;;;;;;;4955143;28;20042;-73
2022/12/28 07:56:53;;;;;;;57.65;14.93;;;;;;;;;;4954986;28;20058;-72
2022/12/28 07:59:18;;;;;;;61.92;14.32;;;;;;;;;;4944416;28;20166;-72
2022/12/28 08:01:44;;;;;;;65.60;14.90;;;;;;;;;;4926001;28;25784;-70
2022/12/28 08:04:11;;;;;;;59.65;13.38;;;;;;;;;;4910013;28;20150;-70
2022/12/28 08:06:38;;;;;;;53.88;14.52;;;;;;;;;;4945996;28;20125;-71
2022/12/28 08:09:04;;;;;;;63.65;14.38;;;;;;;;;;4946855;28;20077;-71
2022/12/28 08:11:33;;;;;;;53.03;13.38;;;;;;;;;;4926965;28;20150;-73
2022/12/28 08:13:59;;;;;;;66.50;14.50;;;;;;;;;;4927857;28;22292;-73
2022/12/28 08:16:27;;;;;;;62.28;15.43;;;;;;;;;;4928694;28;20426;-70
2022/12/28 08:18:53;;;;;;;56.85;14.70;;;;;;;;;;4943330;28;20452;-71
2022/12/28 08:21:23;;;;;;;58.88;14.65;;;;;;;;;;4942334;28;20614;-71
2022/12/28 08:23:51;;;;;;;71.13;14.70;;;;;;;;;;4942474;28;20600;-70
2022/12/28 08:26:18;;;;;;;70.50;15.93;;;;;;;;;;4925218;28;20394;-71
2022/12/28 08:28:44;;;;;;;58.38;15.00;;;;;;;;;;4943746;28;20045;-71
2022/12/28 08:31:11;;;;;;;80.07;16.13;;;;;;;;;;4949946;28;20168;-72
2022/12/28 08:33:36;;;;;;;61.25;14.95;;;;;;;;;;4952447;28;20031;-71
2022/12/28 08:36:05;;;;;;;60.00;15.15;;;;;;;;;;4955445;28;20042;-72
2022/12/28 08:38:33;;;;;;;64.95;15.05;;;;;;;;;;4955283;28;20031;-73
2022/12/28 08:41:00;;;;;;;59.80;14.00;;;;;;;;;;4955126;28;20513;-72
2022/12/28 08:43:26;;;;;;;64.15;14.93;;;;;;;;;;4950613;28;20035;-71
2022/12/28 08:45:57;;;;;;;59.05;15.57;;;;;;;;;;4946680;28;20027;-72
2022/12/28 08:48:25;;;;;;;58.00;13.95;;;;;;;;;;4954269;28;20066;-71
2022/12/28 08:50:50;;;;;;;60.83;15.48;;;;;;;;;;4955623;28;20058;-73
2022/12/28 08:53:16;;;;;;;61.42;14.48;;;;;;;;;;4945107;28;20202;-73
2022/12/28 08:55:44;;;;;;;47.75;13.88;;;;;;;;;;4942901;28;20491;-72
2022/12/28 08:58:12;;;;;;;49.25;13.90;;;;;;;;;;4957125;28;20290;-74
2022/12/28 09:00:39;;;;;;;49.40;13.32;;;;;;;;;;4957251;28;20037;-75
2022/12/28 09:03:07;;;;;;;53.13;13.15;;;;;;;;;;4956153;28;20035;-75
2022/12/28 09:05:37;;;;;;;47.80;11.85;;;;;;;;;;4955043;28;20384;-75
2022/12/28 09:08:03;;;;;;;55.78;12.73;;;;;;;;;;4950752;28;20047;-74
2022/12/28 09:10:31;;;;;;;48.13;12.27;;;;;;;;;;4944445;28;20136;-73
2022/12/28 09:12:56;;;;;;;45.60;11.77;;;;;;;;;;4947039;28;20051;-76
2022/12/28 09:15:23;;;;;;;54.25;11.45;;;;;;;;;;4960048;28;20416;-74
2022/12/28 09:17:48;;;;;;;56.85;11.77;;;;;;;;;;4957693;28;20493;-76
2022/12/28 09:20:13;;;;;;;50.45;11.45;;;;;;;;;;4957681;28;20030;-74
2022/12/28 09:22:39;;;;;;;48.50;12.13;;;;;;;;;;4952493;28;20505;-74
2022/12/28 09:25:04;;;;;;;44.10;11.70;;;;;;;;;;4942522;28;20203;-71
2022/12/28 09:27:30;;;;;;;44.88;10.60;;;;;;;;;;4949978;28;20027;-75
2022/12/28 09:29:55;;;;;;;47.80;10.05;;;;;;;;;;4956591;28;20106;-74
2022/12/28 09:32:21;;;;;;;44.75;10.98;;;;;;;;;;4958612;28;20118;-74
2022/12/28 09:34:48;;;;;;;53.45;10.00;;;;;;;;;;4952417;28;20035;-74
2022/12/28 09:37:14;;;;;;;49.92;10.38;;;;;;;;;;4950620;28;20030;-74
2022/12/28 09:39:39;;;;;;;44.92;8.50;;;;;;;;;;4926253;28;20111;-75
2022/12/28 09:42:14;;;;;;;44.50;8.73;;;;;;;;;;4956077;28;20053;-73
2022/12/28 09:45:00;;;;;;;45.85;9.05;;;;;;;;;;4958610;28;20126;-73
2022/12/28 09:47:28;;;;;;;39.20;8.82;;;;;;;;;;4955638;28;20023;-78
2022/12/28 09:50:00;;;;;;;38.45;7.97;;;;;;;;;;4955124;28;20023;-76
2022/12/28 09:52:30;;;;;;;40.88;8.50;;;;;;;;;;4944810;28;20299;-75
2022/12/28 09:55:04;;;;;;;29.27;7.38;;;;;;;;;;4934195;28;20508;-75
2022/12/28 09:57:33;;;;;;;25.83;6.93;;;;;;;;;;4955253;28;20529;-75
2022/12/28 09:59:58;;;;;;;35.58;8.05;;;;;;;;;;4950065;28;20034;-73
2022/12/28 10:02:31;;;;;;;31.30;7.22;;;;;;;;;;4931308;28;20023;-76
2022/12/28 10:04:57;;;;;;;32.65;7.40;;;;;;;;;;4946505;28;20063;-74
2022/12/28 10:07:22;;;;;;;33.10;7.38;;;;;;;;;;4944421;28;20278;-74
2022/12/28 10:09:48;;;;;;;39.88;8.80;;;;;;;;;;4958575;28;20031;-73
2022/12/28 10:12:15;;;;;;;42.25;8.88;;;;;;;;;;4953450;28;20141;-74
2022/12/28 10:14:41;;;;;;;34.30;6.68;;;;;;;;;;4947056;28;20493;-77
2022/12/28 10:17:08;;;;;;;27.48;6.13;;;;;;;;;;4929214;28;20481;-75
2022/12/28 10:19:34;;;;;;;28.48;7.13;;;;;;;;;;4943576;28;20035;-75
2022/12/28 10:22:06;;;;;;;32.70;7.28;;;;;;;;;;4932027;28;20393;-74
2022/12/28 10:24:33;;;;;;;28.88;6.50;;;;;;;;;;4956018;28;20049;-73
2022/12/28 10:27:00;;;;;;;27.45;6.38;;;;;;;;;;4951270;28;20061;-74
2022/12/28 10:29:26;;;;;;;24.40;6.07;;;;;;;;;;4950945;28;20031;-72
2022/12/28 10:32:12;;;;;;;24.67;5.72;;;;;;;;;;4947728;28;20049;-74
2022/12/28 10:34:51;;;;;;;28.88;5.85;;;;;;;;;;4946183;28;20049;-68
2022/12/28 10:37:17;;;;;;;29.35;6.65;;;;;;;;;;4923096;28;20037;-70
2022/12/28 10:39:54;;;;;;;23.73;5.22;;;;;;;;;;4923056;28;20035;-69
2022/12/28 10:42:21;;;;;;;18.30;4.70;;;;;;;;;;4921902;28;20031;-68
2022/12/28 10:44:49;;;;;;;22.38;4.63;;;;;;;;;;4924021;28;20120;-69
2022/12/28 10:47:29;;;;;;;21.90;5.68;;;;;;;;;;4905779;28;20047;-70
2022/12/28 10:49:54;;;;;;;23.63;4.50;;;;;;;;;;4922352;28;20438;-68
2022/12/28 10:52:27;;;;;;;29.65;4.57;;;;;;;;;;4921186;28;20098;-69
2022/12/28 10:54:52;;;;;;;20.50;4.40;;;;;;;;;;4904541;28;20035;-67
2022/12/28 10:57:26;;;;;;;21.27;4.95;;;;;;;;;;4924188;28;20431;-69
2022/12/28 10:59:52;;;;;;;24.33;5.18;;;;;;;;;;4925443;28;20620;-69
2022/12/28 11:02:27;;;;;;;25.17;5.45;;;;;;;;;;4925789;28;20032;-68
2022/12/28 11:04:52;;;;;;;21.60;5.35;;;;;;;;;;4907700;28;20568;-69
2022/12/28 11:07:28;;;;;;;30.73;5.63;;;;;;;;;;4925638;28;20592;-69
2022/12/28 11:10:14;;;;;;;19.58;4.78;;;;;;;;;;4924844;28;20042;-70
2022/12/28 11:12:44;;;;;;;26.45;6.03;;;;;;;;;;4924511;28;20047;-70
2022/12/28 11:15:17;;;;;;;22.17;4.82;;;;;;;;;;4908290;28;20558;-71
2022/12/28 11:17:43;;;;;;;25.98;6.03;;;;;;;;;;4925441;28;20593;-70
2022/12/28 11:20:11;;;;;;;24.92;5.03;;;;;;;;;;4926520;28;20035;-73
2022/12/28 11:22:39;;;;;;;21.50;5.07;;;;;;;;;;4925773;28;20047;-69
2022/12/28 11:25:05;;;;;;;23.10;5.55;;;;;;;;;;4908221;28;20372;-70
2022/12/28 11:27:30;;;;;;;23.38;5.72;;;;;;;;;;4924659;28;20093;-67
2022/12/28 11:29:56;;;;;;;24.65;6.75;;;;;;;;;;4923356;28;20434;-69
2022/12/28 11:32:36;;;;;;;25.88;5.63;;;;;;;;;;4923996;28;20043;-70
2022/12/28 11:35:05;;;;;;;20.13;5.63;;;;;;;;;;4925833;28;20031;-70
2022/12/28 11:37:30;;;;;;;28.58;6.22;;;;;;;;;;4942328;28;20038;-69
2022/12/28 11:39:57;;;;;;;23.77;5.72;;;;;;;;;;4944331;28;20954;-72
2022/12/28 11:42:30;;;;;;;26.92;5.50;;;;;;;;;;4925844;28;20038;-68
2022/12/28 11:44:55;;;;;;;25.58;5.18;;;;;;;;;;4942634;28;20504;-70
2022/12/28 11:47:32;;;;;;;20.63;5.13;;;;;;;;;;4925060;28;20034;-69
2022/12/28 11:50:18;;;;;;;26.40;4.78;;;;;;;;;;4942359;28;20034;-69
2022/12/28 11:52:45;;;;;;;21.23;5.18;;;;;;;;;;4941937;28;20117;-69
2022/12/28 11:55:20;;;;;;;20.73;5.22;;;;;;;;;;4943788;28;20480;-69
2022/12/28 11:57:45;;;;;;;23.08;4.97;;;;;;;;;;4942624;28;20402;-69
2022/12/28 12:00:19;;;;;;;27.38;4.90;;;;;;;;;;4943113;28;20026;-69
2022/12/28 12:02:49;;;;;;;24.08;4.82;;;;;;;;;;4939307;28;20033;-69
2022/12/28 12:05:33;;;;;;;21.42;4.75;;;;;;;;;;4942706;28;20031;-70
2022/12/28 12:08:01;;;;;;;30.27;5.45;;;;;;;;;;4943129;28;20088;-74
2022/12/28 12:10:32;;;;;;;22.05;5.45;;;;;;;;;;4945694;28;20409;-70
2022/12/28 12:12:58;;;;;;;32.55;4.72;;;;;;;;;;4943689;28;20153;-71
2022/12/28 12:15:32;;;;;;;25.48;4.82;;;;;;;;;;4942832;28;20077;-70
2022/12/28 12:18:02;;;;;;;27.25;4.40;;;;;;;;;;4944489;28;20053;-75
2022/12/28 12:20:47;;;;;;;31.17;4.70;;;;;;;;;;4944494;28;20035;-71
2022/12/28 12:23:25;;;;;;;28.77;4.80;;;;;;;;;;4946037;28;20035;-72
2022/12/28 12:25:53;;;;;;;31.70;5.68;;;;;;;;;;4945754;28;20279;-72
2022/12/28 12:28:33;;;;;;;34.53;5.72;;;;;;;;;;4946065;28;20390;-71
2022/12/28 12:30:59;;;;;;;24.65;4.45;;;;;;;;;;4944194;28;20519;-70
2022/12/28 12:33:32;;;;;;;27.30;5.72;;;;;;;;;;4912144;28;20110;-73
2022/12/28 12:36:16;;;;;;;25.15;6.20;;;;;;;;;;4943888;28;20133;-74
2022/12/28 12:38:56;;;;;;;26.17;6.32;;;;;;;;;;4944701;28;20047;-72
2022/12/28 12:41:22;;;;;;;33.30;8.73;;;;;;;;;;4944210;28;20114;-71
2022/12/28 12:43:53;;;;;;;25.38;6.68;;;;;;;;;;4943568;28;20057;-71
2022/12/28 12:46:51;;;;;;;23.92;6.95;;;;;;;;;;4938591;28;20154;-72
2022/12/28 12:49:16;;;;;;;30.27;9.73;;;;;;;;;;4944220;28;20509;-70
2022/12/28 12:51:48;;;;;;;36.72;9.60;;;;;;;;;;4924734;28;20042;-70
2022/12/28 12:54:52;;;;;;;28.05;9.32;;;;;;;;;;4924583;28;20161;-70
2022/12/28 12:57:21;;;;;;;36.47;9.60;;;;;;;;;;4960510;28;20026;-70
2022/12/28 13:00:02;;;;;;;28.02;9.20;;;;;;;;;;4961013;28;20135;-70
2022/12/28 13:02:31;;;;;;;36.72;10.38;;;;;;;;;;4922359;28;20343;-70
2022/12/28 13:05:00;;;;;;;33.53;9.50;;;;;;;;;;4924200;28;20397;-68
2022/12/28 13:07:26;;;;;;;26.67;9.25;;;;;;;;;;4916624;28;20030;-70
2022/12/28 13:09:53;;;;;;;36.33;10.75;;;;;;;;;;4921606;28;20028;-70
2022/12/28 13:12:19;;;;;;;37.15;11.32;;;;;;;;;;4924708;28;20258;-69
2022/12/28 13:14:51;;;;;;;43.50;12.63;;;;;;;;;;4924864;28;20046;-69
2022/12/28 13:17:18;;;;;;;37.35;11.30;;;;;;;;;;4923873;28;20039;-68
2022/12/28 13:19:43;;;;;;;38.63;10.68;;;;;;;;;;4923421;28;20031;-69
2022/12/28 13:22:26;;;;;;;27.67;9.90;;;;;;;;;;4923472;28;20435;-73
2022/12/28 13:24:51;;;;;;;31.35;11.07;;;;;;;;;;4905171;28;20455;-69
2022/12/28 13:27:18;;;;;;;36.75;10.65;;;;;;;;;;4923793;28;20042;-70
2022/12/28 13:29:52;;;;;;;42.03;10.55;;;;;;;;;;4924452;28;20038;-69
2022/12/28 13:32:27;;;;;;;43.22;11.00;;;;;;;;;;4934174;28;20374;-69
2022/12/28 13:34:54;;;;;;;43.83;10.20;;;;;;;;;;4941211;28;20027;-72
2022/12/28 13:37:20;;;;;;;39.92;10.32;;;;;;;;;;4923104;28;20034;-69
2022/12/28 13:39:46;;;;;;;52.92;10.85;;;;;;;;;;4941233;28;20031;-69
2022/12/28 13:42:22;;;;;;;40.85;9.55;;;;;;;;;;4941274;28;20031;-70
2022/12/28 13:44:49;;;;;;;43.08;9.57;;;;;;;;;;4927061;28;20031;-68
2022/12/28 13:47:27;;;;;;;33.80;9.10;;;;;;;;;;4933648;28;20401;-69
2022/12/28 13:49:52;;;;;;;43.05;10.40;;;;;;;;;;4970214;28;20041;-71
2022/12/28 13:52:22;;;;;;;38.13;9.13;;;;;;;;;;4927299;28;20047;-68
2022/12/28 13:54:50;;;;;;;34.03;9.60;;;;;;;;;;4939513;28;20030;-67
2022/12/28 13:57:16;;;;;;;31.92;7.95;;;;;;;;;;4944880;28;20046;-69
2022/12/28 13:59:41;;;;;;;27.35;7.68;;;;;;;;;;4942935;28;20104;-70
2022/12/28 14:02:11;;;;;;;15.52;5.95;;;;;;;;;;4925574;28;20481;-70
2022/12/28 14:04:42;;;;;;;12.98;4.93;;;;;;;;;;4945011;28;20359;-70
2022/12/28 14:07:14;;;;;;;14.85;5.47;;;;;;;;;;4942841;28;20165;-70
2022/12/28 14:09:42;;;;;;;15.15;5.45;;;;;;;;;;4945943;28;20065;-68
2022/12/28 14:12:08;;;;;;;13.65;4.82;;;;;;;;;;4925954;28;20240;-67
2022/12/28 14:14:37;;;;;;;12.25;4.70;;;;;;;;;;4922630;28;20242;-68
2022/12/28 14:17:03;;;;;;;16.02;4.78;;;;;;;;;;4946246;28;20145;-70
2022/12/28 14:19:28;;;;;;;18.85;5.53;;;;;;;;;;4945623;28;20031;-67
2022/12/28 14:21:53;;;;;;;18.00;5.07;;;;;;;;;;4942683;28;20065;-69
2022/12/28 14:24:19;;;;;;;19.00;4.60;;;;;;;;;;4943739;28;20317;-69
2022/12/28 14:26:52;;;;;;;17.92;5.18;;;;;;;;;;4938850;28;20049;-69
2022/12/28 14:29:25;;;;;;;13.73;4.80;;;;;;;;;;4942137;28;20042;-69
2022/12/28 14:31:54;;;;;;;22.00;8.98;;;;;;;;;;4942166;28;20038;-70
2022/12/28 14:34:23;;;;;;;16.88;7.82;;;;;;;;;;4925286;28;20258;-69
2022/12/28 14:36:49;;;;;;;16.33;7.40;;;;;;;;;;4941897;28;20537;-69
2022/12/28 14:39:26;;;;;;;18.50;6.63;;;;;;;;;;4940679;28;20465;-69
2022/12/28 14:41:52;;;;;;;14.52;5.90;;;;;;;;;;4938390;28;20265;-69
2022/12/28 14:44:24;;;;;;;14.18;5.47;;;;;;;;;;4944576;28;20529;-69
2022/12/28 14:46:53;;;;;;;15.00;6.45;;;;;;;;;;4939801;28;20034;-69
2022/12/28 14:49:27;;;;;;;14.57;5.85;;;;;;;;;;4939465;28;20365;-69
2022/12/28 14:51:53;;;;;;;15.43;4.40;;;;;;;;;;4939304;28;20035;-71
2022/12/28 14:54:20;;;;;;;15.82;3.95;;;;;;;;;;4922773;28;20096;-70
2022/12/28 14:57:06;;;;;;;17.15;5.63;;;;;;;;;;4937939;28;20035;-70